sensor_id;sensor_type;location;lat;lon;timestamp;P1;durP1;ratioP1;P2;durP2;ratioP2
27985;SDS011;15453;53.692;10.168;2022-12-07T00:03:36;12.93;;;9.13;;
27985;SDS011;15453;53.692;10.168;2022-12-07T00:06:02;12.35;;;9.27;;
27985;SDS011;15453;53.692;10.168;2022-12-07T00:08:29;13.10;;;9.52;;
27985;SDS011;15453;53.692;10.168;2022-12-07T00:10:59;13.32;;;9.70;;
27985;SDS011;15453;53.692;10.168;2022-12-07T00:13:26;13.85;;;10.20;;
27985;SDS011;15453;53.692;10.168;2022-12-07T00:15:51;14.48;;;10.15;;
27985;SDS011;15453;53.692;10.168;2022-12-07T00:18:16;14.00;;;10.02;;
27985;SDS011;15453;53.692;10.168;2022-12-07T00:20:41;15.07;;;10.75;;
27985;SDS011;15453;53.692;10.168;2022-12-07T00:23:07;14.30;;;10.10;;
27985;SDS011;15453;53.692;10.168;2022-12-07T00:25:32;14.95;;;9.48;;
27985;SDS011;15453;53.692;10.168;2022-12-07T00:27:57;14.32;;;10.25;;
27985;SDS011;15453;53.692;10.168;2022-12-07T00:30:23;14.98;;;10.07;;
27985;SDS011;15453;53.692;10.168;2022-12-07T00:32:49;13.73;;;9.27;;
27985;SDS011;15453;53.692;10.168;2022-12-07T00:35:15;17.00;;;10.48;;
27985;SDS011;15453;53.692;10.168;2022-12-07T00:37:40;15.13;;;10.40;;
27985;SDS011;15453;53.692;10.168;2022-12-07T00:40:06;13.77;;;9.93;;
27985;SDS011;15453;53.692;10.168;2022-12-07T00:42:31;17.00;;;10.35;;
27985;SDS011;15453;53.692;10.168;2022-12-07T00:44:57;20.33;;;11.18;;
27985;SDS011;15453;53.692;10.168;2022-12-07T00:47:22;15.02;;;11.05;;
27985;SDS011;15453;53.692;10.168;2022-12-07T00:49:47;18.05;;;11.52;;
27985;SDS011;15453;53.692;10.168;2022-12-07T00:52:12;14.30;;;10.43;;
27985;SDS011;15453;53.692;10.168;2022-12-07T00:54:37;13.52;;;10.07;;
27985;SDS011;15453;53.692;10.168;2022-12-07T00:57:03;12.98;;;10.00;;
27985;SDS011;15453;53.692;10.168;2022-12-07T00:59:28;13.98;;;9.55;;
27985;SDS011;15453;53.692;10.168;2022-12-07T01:01:53;14.98;;;10.85;;
27985;SDS011;15453;53.692;10.168;2022-12-07T01:04:18;17.42;;;11.95;;
27985;SDS011;15453;53.692;10.168;2022-12-07T01:06:44;14.68;;;10.70;;
27985;SDS011;15453;53.692;10.168;2022-12-07T01:09:09;15.30;;;10.07;;
27985;SDS011;15453;53.692;10.168;2022-12-07T01:11:34;14.18;;;10.15;;
27985;SDS011;15453;53.692;10.168;2022-12-07T01:13:59;14.68;;;10.32;;
27985;SDS011;15453;53.692;10.168;2022-12-07T01:16:26;13.65;;;10.55;;
27985;SDS011;15453;53.692;10.168;2022-12-07T01:18:54;14.98;;;10.05;;
27985;SDS011;15453;53.692;10.168;2022-12-07T01:21:25;14.27;;;9.77;;
27985;SDS011;15453;53.692;10.168;2022-12-07T01:23:51;14.52;;;10.48;;
27985;SDS011;15453;53.692;10.168;2022-12-07T01:26:18;14.00;;;9.57;;
27985;SDS011;15453;53.692;10.168;2022-12-07T01:28:45;15.20;;;9.75;;
27985;SDS011;15453;53.692;10.168;2022-12-07T01:31:12;12.48;;;8.85;;
27985;SDS011;15453;53.692;10.168;2022-12-07T01:33:42;14.70;;;8.60;;
27985;SDS011;15453;53.692;10.168;2022-12-07T01:36:13;15.30;;;9.25;;
27985;SDS011;15453;53.692;10.168;2022-12-07T01:38:41;13.60;;;9.10;;
27985;SDS011;15453;53.692;10.168;2022-12-07T01:41:07;14.23;;;8.48;;
27985;SDS011;15453;53.692;10.168;2022-12-07T01:43:32;11.90;;;8.48;;
27985;SDS011;15453;53.692;10.168;2022-12-07T01:45:59;12.15;;;8.60;;
27985;SDS011;15453;53.692;10.168;2022-12-07T01:48:29;14.80;;;7.97;;
27985;SDS011;15453;53.692;10.168;2022-12-07T01:50:59;12.35;;;8.55;;
27985;SDS011;15453;53.692;10.168;2022-12-07T01:53:29;12.88;;;8.20;;
27985;SDS011;15453;53.692;10.168;2022-12-07T01:55:55;11.75;;;8.07;;
27985;SDS011;15453;53.692;10.168;2022-12-07T01:58:21;10.00;;;6.88;;
27985;SDS011;15453;53.692;10.168;2022-12-07T02:00:48;11.32;;;7.38;;
27985;SDS011;15453;53.692;10.168;2022-12-07T02:03:32;13.02;;;8.05;;
27985;SDS011;15453;53.692;10.168;2022-12-07T03:06:31;7.30;;;4.00;;
27985;SDS011;15453;53.692;10.168;2022-12-07T03:09:11;5.93;;;3.13;;
27985;SDS011;15453;53.692;10.168;2022-12-07T03:11:47;6.93;;;3.58;;
27985;SDS011;15453;53.692;10.168;2022-12-07T03:14:17;6.72;;;3.80;;
27985;SDS011;15453;53.692;10.168;2022-12-07T03:16:58;7.00;;;2.88;;
27985;SDS011;15453;53.692;10.168;2022-12-07T03:19:27;5.65;;;3.05;;
27985;SDS011;15453;53.692;10.168;2022-12-07T03:22:02;6.45;;;2.88;;
27985;SDS011;15453;53.692;10.168;2022-12-07T03:24:36;6.50;;;3.13;;
27985;SDS011;15453;53.692;10.168;2022-12-07T03:27:06;3.63;;;2.33;;
27985;SDS011;15453;53.692;10.168;2022-12-07T03:29:38;6.97;;;2.63;;
27985;SDS011;15453;53.692;10.168;2022-12-07T03:32:11;6.55;;;2.40;;
27985;SDS011;15453;53.692;10.168;2022-12-07T03:34:50;7.45;;;2.15;;
27985;SDS011;15453;53.692;10.168;2022-12-07T03:37:41;4.85;;;1.98;;
27985;SDS011;15453;53.692;10.168;2022-12-07T03:42:53;3.80;;;1.80;;
27985;SDS011;15453;53.692;10.168;2022-12-07T03:45:21;6.28;;;2.03;;
27985;SDS011;15453;53.692;10.168;2022-12-07T03:47:58;6.90;;;1.90;;
27985;SDS011;15453;53.692;10.168;2022-12-07T03:50:43;2.75;;;1.60;;
27985;SDS011;15453;53.692;10.168;2022-12-07T03:56:10;4.40;;;1.67;;
27985;SDS011;15453;53.692;10.168;2022-12-07T03:58:37;5.38;;;1.50;;
27985;SDS011;15453;53.692;10.168;2022-12-07T04:01:03;4.18;;;1.80;;
27985;SDS011;15453;53.692;10.168;2022-12-07T04:03:29;8.05;;;2.08;;
27985;SDS011;15453;53.692;10.168;2022-12-07T04:05:54;2.83;;;1.23;;
27985;SDS011;15453;53.692;10.168;2022-12-07T04:08:20;2.40;;;1.45;;
27985;SDS011;15453;53.692;10.168;2022-12-07T04:10:45;3.70;;;1.55;;
27985;SDS011;15453;53.692;10.168;2022-12-07T04:13:10;7.07;;;1.48;;
27985;SDS011;15453;53.692;10.168;2022-12-07T04:15:35;2.63;;;1.50;;
27985;SDS011;15453;53.692;10.168;2022-12-07T04:18:00;5.90;;;1.90;;
27985;SDS011;15453;53.692;10.168;2022-12-07T04:20:26;3.95;;;1.70;;
27985;SDS011;15453;53.692;10.168;2022-12-07T04:22:51;4.00;;;2.03;;
27985;SDS011;15453;53.692;10.168;2022-12-07T04:25:16;3.45;;;2.00;;
27985;SDS011;15453;53.692;10.168;2022-12-07T04:27:42;4.03;;;1.73;;
27985;SDS011;15453;53.692;10.168;2022-12-07T04:30:07;3.85;;;2.00;;
27985;SDS011;15453;53.692;10.168;2022-12-07T04:32:33;4.13;;;2.13;;
27985;SDS011;15453;53.692;10.168;2022-12-07T04:34:58;2.40;;;1.75;;
27985;SDS011;15453;53.692;10.168;2022-12-07T04:37:23;4.20;;;1.85;;
27985;SDS011;15453;53.692;10.168;2022-12-07T04:39:49;6.68;;;2.20;;
27985;SDS011;15453;53.692;10.168;2022-12-07T04:42:14;3.60;;;1.50;;
27985;SDS011;15453;53.692;10.168;2022-12-07T04:44:40;3.40;;;1.83;;
27985;SDS011;15453;53.692;10.168;2022-12-07T04:47:05;4.05;;;2.15;;
27985;SDS011;15453;53.692;10.168;2022-12-07T04:49:30;4.00;;;2.08;;
27985;SDS011;15453;53.692;10.168;2022-12-07T04:51:55;6.07;;;2.22;;
27985;SDS011;15453;53.692;10.168;2022-12-07T04:54:21;3.60;;;1.88;;
27985;SDS011;15453;53.692;10.168;2022-12-07T04:56:46;4.75;;;2.08;;
27985;SDS011;15453;53.692;10.168;2022-12-07T04:59:12;3.55;;;1.77;;
27985;SDS011;15453;53.692;10.168;2022-12-07T05:01:39;5.43;;;2.15;;
27985;SDS011;15453;53.692;10.168;2022-12-07T05:04:04;8.93;;;2.10;;
27985;SDS011;15453;53.692;10.168;2022-12-07T05:06:30;3.55;;;1.80;;
27985;SDS011;15453;53.692;10.168;2022-12-07T05:08:55;3.50;;;2.00;;
27985;SDS011;15453;53.692;10.168;2022-12-07T05:11:20;3.53;;;2.15;;
27985;SDS011;15453;53.692;10.168;2022-12-07T05:14:05;3.28;;;2.17;;
27985;SDS011;15453;53.692;10.168;2022-12-07T05:16:33;5.63;;;2.10;;
27985;SDS011;15453;53.692;10.168;2022-12-07T05:18:58;7.70;;;2.20;;
27985;SDS011;15453;53.692;10.168;2022-12-07T05:21:23;4.45;;;2.20;;
27985;SDS011;15453;53.692;10.168;2022-12-07T05:23:49;6.57;;;2.83;;
27985;SDS011;15453;53.692;10.168;2022-12-07T05:26:14;6.15;;;2.28;;
27985;SDS011;15453;53.692;10.168;2022-12-07T05:28:39;4.13;;;2.28;;
27985;SDS011;15453;53.692;10.168;2022-12-07T05:31:05;7.65;;;3.13;;
27985;SDS011;15453;53.692;10.168;2022-12-07T05:33:30;3.90;;;2.28;;
27985;SDS011;15453;53.692;10.168;2022-12-07T05:35:55;8.15;;;2.40;;
27985;SDS011;15453;53.692;10.168;2022-12-07T05:38:21;3.88;;;2.15;;
27985;SDS011;15453;53.692;10.168;2022-12-07T05:40:46;12.38;;;2.72;;
27985;SDS011;15453;53.692;10.168;2022-12-07T05:43:11;4.85;;;2.40;;
27985;SDS011;15453;53.692;10.168;2022-12-07T05:45:36;6.53;;;2.80;;
27985;SDS011;15453;53.692;10.168;2022-12-07T05:48:02;5.32;;;2.65;;
27985;SDS011;15453;53.692;10.168;2022-12-07T05:50:27;4.90;;;2.63;;
27985;SDS011;15453;53.692;10.168;2022-12-07T05:52:53;4.05;;;2.65;;
27985;SDS011;15453;53.692;10.168;2022-12-07T05:55:18;6.10;;;3.45;;
27985;SDS011;15453;53.692;10.168;2022-12-07T05:57:43;4.43;;;3.00;;
27985;SDS011;15453;53.692;10.168;2022-12-07T06:00:28;3.70;;;2.40;;
27985;SDS011;15453;53.692;10.168;2022-12-07T06:02:54;5.53;;;2.88;;
27985;SDS011;15453;53.692;10.168;2022-12-07T06:05:19;5.40;;;2.80;;
27985;SDS011;15453;53.692;10.168;2022-12-07T06:07:44;5.00;;;2.67;;
27985;SDS011;15453;53.692;10.168;2022-12-07T06:10:09;3.00;;;2.20;;
27985;SDS011;15453;53.692;10.168;2022-12-07T06:12:35;5.25;;;2.92;;
27985;SDS011;15453;53.692;10.168;2022-12-07T06:15:00;5.95;;;3.45;;
27985;SDS011;15453;53.692;10.168;2022-12-07T06:17:26;4.50;;;3.00;;
27985;SDS011;15453;53.692;10.168;2022-12-07T06:19:51;5.28;;;3.13;;
27985;SDS011;15453;53.692;10.168;2022-12-07T06:22:16;4.70;;;2.90;;
27985;SDS011;15453;53.692;10.168;2022-12-07T06:24:42;6.38;;;3.38;;
27985;SDS011;15453;53.692;10.168;2022-12-07T06:27:08;13.93;;;3.63;;
27985;SDS011;15453;53.692;10.168;2022-12-07T06:29:34;5.10;;;3.20;;
27985;SDS011;15453;53.692;10.168;2022-12-07T06:31:59;6.05;;;2.95;;
27985;SDS011;15453;53.692;10.168;2022-12-07T06:34:25;6.03;;;3.45;;
27985;SDS011;15453;53.692;10.168;2022-12-07T06:36:51;6.18;;;3.20;;
27985;SDS011;15453;53.692;10.168;2022-12-07T06:39:20;5.82;;;3.35;;
27985;SDS011;15453;53.692;10.168;2022-12-07T06:41:46;5.72;;;3.30;;
27985;SDS011;15453;53.692;10.168;2022-12-07T06:44:12;6.70;;;3.50;;
27985;SDS011;15453;53.692;10.168;2022-12-07T06:46:37;5.57;;;3.25;;
27985;SDS011;15453;53.692;10.168;2022-12-07T06:49:03;7.32;;;3.75;;
27985;SDS011;15453;53.692;10.168;2022-12-07T06:51:29;5.10;;;3.53;;
27985;SDS011;15453;53.692;10.168;2022-12-07T06:53:54;6.25;;;3.28;;
27985;SDS011;15453;53.692;10.168;2022-12-07T06:56:20;7.18;;;3.30;;
27985;SDS011;15453;53.692;10.168;2022-12-07T06:58:45;5.60;;;3.28;;
27985;SDS011;15453;53.692;10.168;2022-12-07T07:01:11;6.28;;;3.10;;
27985;SDS011;15453;53.692;10.168;2022-12-07T07:03:37;4.10;;;2.55;;
27985;SDS011;15453;53.692;10.168;2022-12-07T07:06:03;4.82;;;2.85;;
27985;SDS011;15453;53.692;10.168;2022-12-07T07:08:29;9.23;;;3.47;;
27985;SDS011;15453;53.692;10.168;2022-12-07T07:10:55;6.90;;;3.60;;
27985;SDS011;15453;53.692;10.168;2022-12-07T07:13:20;7.15;;;4.22;;
27985;SDS011;15453;53.692;10.168;2022-12-07T07:15:46;6.40;;;3.25;;
27985;SDS011;15453;53.692;10.168;2022-12-07T07:18:11;6.32;;;3.60;;
27985;SDS011;15453;53.692;10.168;2022-12-07T07:20:36;6.43;;;3.42;;
27985;SDS011;15453;53.692;10.168;2022-12-07T07:23:02;7.53;;;3.60;;
27985;SDS011;15453;53.692;10.168;2022-12-07T07:25:27;4.68;;;2.92;;
27985;SDS011;15453;53.692;10.168;2022-12-07T07:27:52;5.90;;;3.35;;
27985;SDS011;15453;53.692;10.168;2022-12-07T07:30:18;4.70;;;2.80;;
27985;SDS011;15453;53.692;10.168;2022-12-07T07:32:43;6.45;;;3.15;;
27985;SDS011;15453;53.692;10.168;2022-12-07T07:35:08;8.13;;;3.30;;
27985;SDS011;15453;53.692;10.168;2022-12-07T07:37:33;7.40;;;3.00;;
27985;SDS011;15453;53.692;10.168;2022-12-07T07:39:59;7.45;;;3.30;;
27985;SDS011;15453;53.692;10.168;2022-12-07T07:42:24;6.10;;;3.03;;
27985;SDS011;15453;53.692;10.168;2022-12-07T07:44:49;5.47;;;2.92;;
27985;SDS011;15453;53.692;10.168;2022-12-07T07:47:14;7.60;;;2.70;;
27985;SDS011;15453;53.692;10.168;2022-12-07T07:49:39;6.57;;;2.70;;
27985;SDS011;15453;53.692;10.168;2022-12-07T07:52:05;5.43;;;2.72;;
27985;SDS011;15453;53.692;10.168;2022-12-07T07:54:31;5.53;;;2.63;;
27985;SDS011;15453;53.692;10.168;2022-12-07T07:56:56;4.90;;;2.65;;
27985;SDS011;15453;53.692;10.168;2022-12-07T07:59:21;5.47;;;2.53;;
27985;SDS011;15453;53.692;10.168;2022-12-07T08:01:47;6.00;;;2.70;;
27985;SDS011;15453;53.692;10.168;2022-12-07T08:04:12;9.20;;;2.65;;
27985;SDS011;15453;53.692;10.168;2022-12-07T08:06:37;7.57;;;2.80;;
27985;SDS011;15453;53.692;10.168;2022-12-07T08:09:03;5.97;;;2.60;;
27985;SDS011;15453;53.692;10.168;2022-12-07T08:11:30;3.25;;;2.30;;
27985;SDS011;15453;53.692;10.168;2022-12-07T09:04:32;6.97;;;2.08;;
27985;SDS011;15453;53.692;10.168;2022-12-07T09:06:57;6.35;;;2.63;;
27985;SDS011;15453;53.692;10.168;2022-12-07T09:09:23;6.72;;;2.33;;
27985;SDS011;15453;53.692;10.168;2022-12-07T09:11:48;6.80;;;2.30;;
27985;SDS011;15453;53.692;10.168;2022-12-07T09:14:14;3.95;;;1.77;;
27985;SDS011;15453;53.692;10.168;2022-12-07T09:16:39;4.88;;;1.85;;
27985;SDS011;15453;53.692;10.168;2022-12-07T09:19:05;4.40;;;1.55;;
27985;SDS011;15453;53.692;10.168;2022-12-07T09:21:30;4.90;;;1.40;;
27985;SDS011;15453;53.692;10.168;2022-12-07T09:23:55;5.65;;;1.58;;
27985;SDS011;15453;53.692;10.168;2022-12-07T09:26:20;6.35;;;1.70;;
27985;SDS011;15453;53.692;10.168;2022-12-07T09:28:46;5.25;;;1.80;;
27985;SDS011;15453;53.692;10.168;2022-12-07T09:31:11;7.60;;;2.00;;
27985;SDS011;15453;53.692;10.168;2022-12-07T09:33:36;11.20;;;1.75;;
27985;SDS011;15453;53.692;10.168;2022-12-07T09:36:03;6.82;;;1.67;;
27985;SDS011;15453;53.692;10.168;2022-12-07T09:38:28;5.30;;;1.83;;
27985;SDS011;15453;53.692;10.168;2022-12-07T09:40:55;5.95;;;1.83;;
27985;SDS011;15453;53.692;10.168;2022-12-07T09:43:24;3.40;;;1.50;;
27985;SDS011;15453;53.692;10.168;2022-12-07T09:45:51;5.35;;;1.77;;
27985;SDS011;15453;53.692;10.168;2022-12-07T09:48:23;6.57;;;1.60;;
27985;SDS011;15453;53.692;10.168;2022-12-07T09:50:54;11.77;;;2.45;;
27985;SDS011;15453;53.692;10.168;2022-12-07T09:53:29;5.05;;;1.60;;
27985;SDS011;15453;53.692;10.168;2022-12-07T09:55:58;7.68;;;1.73;;
27985;SDS011;15453;53.692;10.168;2022-12-07T09:58:24;7.50;;;2.00;;
27985;SDS011;15453;53.692;10.168;2022-12-07T10:00:59;12.88;;;2.25;;
27985;SDS011;15453;53.692;10.168;2022-12-07T10:03:26;8.45;;;2.08;;
27985;SDS011;15453;53.692;10.168;2022-12-07T10:05:53;6.10;;;1.95;;
27985;SDS011;15453;53.692;10.168;2022-12-07T10:08:18;10.65;;;2.47;;
27985;SDS011;15453;53.692;10.168;2022-12-07T10:10:44;9.35;;;1.75;;
27985;SDS011;15453;53.692;10.168;2022-12-07T10:13:12;5.70;;;1.50;;
27985;SDS011;15453;53.692;10.168;2022-12-07T10:15:43;4.45;;;1.48;;
27985;SDS011;15453;53.692;10.168;2022-12-07T10:18:47;5.55;;;1.65;;
27985;SDS011;15453;53.692;10.168;2022-12-07T10:21:13;8.00;;;2.05;;
27985;SDS011;15453;53.692;10.168;2022-12-07T10:24:01;4.88;;;1.60;;
27985;SDS011;15453;53.692;10.168;2022-12-07T10:31:25;6.70;;;1.23;;
27985;SDS011;15453;53.692;10.168;2022-12-07T10:33:52;5.72;;;1.65;;
27985;SDS011;15453;53.692;10.168;2022-12-07T10:41:59;7.43;;;1.77;;
27985;SDS011;15453;53.692;10.168;2022-12-07T10:44:27;8.13;;;1.90;;
27985;SDS011;15453;53.692;10.168;2022-12-07T10:49:44;3.20;;;1.02;;
27985;SDS011;15453;53.692;10.168;2022-12-07T10:58:25;6.00;;;1.50;;
27985;SDS011;15453;53.692;10.168;2022-12-07T11:09:51;11.07;;;2.33;;
27985;SDS011;15453;53.692;10.168;2022-12-07T11:15:12;8.13;;;1.92;;
27985;SDS011;15453;53.692;10.168;2022-12-07T11:17:48;13.80;;;1.85;;
27985;SDS011;15453;53.692;10.168;2022-12-07T11:20:52;11.68;;;1.85;;
27985;SDS011;15453;53.692;10.168;2022-12-07T11:29:06;11.05;;;2.97;;
27985;SDS011;15453;53.692;10.168;2022-12-07T11:35:05;3.03;;;1.38;;
27985;SDS011;15453;53.692;10.168;2022-12-07T11:37:40;9.20;;;1.92;;
27985;SDS011;15453;53.692;10.168;2022-12-07T11:40:19;7.25;;;2.10;;
27985;SDS011;15453;53.692;10.168;2022-12-07T11:42:52;6.93;;;1.63;;
27985;SDS011;15453;53.692;10.168;2022-12-07T11:45:27;6.82;;;1.45;;
27985;SDS011;15453;53.692;10.168;2022-12-07T11:48:03;5.95;;;1.38;;
27985;SDS011;15453;53.692;10.168;2022-12-07T11:50:41;7.22;;;1.40;;
27985;SDS011;15453;53.692;10.168;2022-12-07T11:55:50;7.43;;;1.90;;
27985;SDS011;15453;53.692;10.168;2022-12-07T11:58:33;7.85;;;1.73;;
27985;SDS011;15453;53.692;10.168;2022-12-07T12:01:19;6.13;;;1.65;;
27985;SDS011;15453;53.692;10.168;2022-12-07T12:03:52;3.90;;;1.23;;
27985;SDS011;15453;53.692;10.168;2022-12-07T12:08:50;8.80;;;2.03;;
27985;SDS011;15453;53.692;10.168;2022-12-07T12:11:25;9.13;;;1.50;;
27985;SDS011;15453;53.692;10.168;2022-12-07T12:14:15;11.95;;;1.98;;
27985;SDS011;15453;53.692;10.168;2022-12-07T12:20:01;7.28;;;1.50;;
27985;SDS011;15453;53.692;10.168;2022-12-07T12:25:26;4.50;;;1.20;;
27985;SDS011;15453;53.692;10.168;2022-12-07T12:27:55;4.95;;;1.20;;
27985;SDS011;15453;53.692;10.168;2022-12-07T12:30:34;9.57;;;2.00;;
27985;SDS011;15453;53.692;10.168;2022-12-07T12:33:02;11.85;;;1.80;;
27985;SDS011;15453;53.692;10.168;2022-12-07T12:35:31;9.73;;;2.38;;
27985;SDS011;15453;53.692;10.168;2022-12-07T12:40:58;9.80;;;2.10;;
27985;SDS011;15453;53.692;10.168;2022-12-07T12:43:40;7.70;;;1.45;;
27985;SDS011;15453;53.692;10.168;2022-12-07T12:48:55;5.78;;;0.90;;
27985;SDS011;15453;53.692;10.168;2022-12-07T12:51:40;4.32;;;1.23;;
27985;SDS011;15453;53.692;10.168;2022-12-07T12:54:23;10.70;;;1.35;;
27985;SDS011;15453;53.692;10.168;2022-12-07T12:57:32;4.18;;;0.98;;
27985;SDS011;15453;53.692;10.168;2022-12-07T13:02:20;5.65;;;1.23;;
27985;SDS011;15453;53.692;10.168;2022-12-07T13:04:49;5.53;;;0.93;;
27985;SDS011;15453;53.692;10.168;2022-12-07T13:08:17;7.75;;;1.50;;
27985;SDS011;15453;53.692;10.168;2022-12-07T13:12:57;4.82;;;1.00;;
27985;SDS011;15453;53.692;10.168;2022-12-07T13:15:32;6.47;;;1.25;;
27985;SDS011;15453;53.692;10.168;2022-12-07T13:17:58;4.07;;;0.88;;
27985;SDS011;15453;53.692;10.168;2022-12-07T13:20:47;5.82;;;1.08;;
27985;SDS011;15453;53.692;10.168;2022-12-07T13:23:14;2.47;;;0.70;;
27985;SDS011;15453;53.692;10.168;2022-12-07T13:28:37;2.95;;;0.90;;
27985;SDS011;15453;53.692;10.168;2022-12-07T13:33:58;2.47;;;0.85;;
27985;SDS011;15453;53.692;10.168;2022-12-07T13:36:25;5.40;;;1.00;;
27985;SDS011;15453;53.692;10.168;2022-12-07T13:38:54;2.70;;;0.73;;
27985;SDS011;15453;53.692;10.168;2022-12-07T13:41:22;3.83;;;0.77;;
27985;SDS011;15453;53.692;10.168;2022-12-07T13:43:53;6.30;;;0.98;;
27985;SDS011;15453;53.692;10.168;2022-12-07T13:46:26;6.97;;;1.35;;
27985;SDS011;15453;53.692;10.168;2022-12-07T13:48:58;4.10;;;0.88;;
27985;SDS011;15453;53.692;10.168;2022-12-07T13:51:25;5.45;;;1.30;;
27985;SDS011;15453;53.692;10.168;2022-12-07T13:53:52;7.13;;;1.40;;
27985;SDS011;15453;53.692;10.168;2022-12-07T13:56:26;5.60;;;1.38;;
27985;SDS011;15453;53.692;10.168;2022-12-07T13:58:58;5.70;;;1.20;;
27985;SDS011;15453;53.692;10.168;2022-12-07T14:01:24;3.83;;;0.85;;
27985;SDS011;15453;53.692;10.168;2022-12-07T14:03:50;2.90;;;0.75;;
27985;SDS011;15453;53.692;10.168;2022-12-07T14:06:25;5.10;;;1.00;;
27985;SDS011;15453;53.692;10.168;2022-12-07T14:11:53;5.90;;;1.17;;
27985;SDS011;15453;53.692;10.168;2022-12-07T14:14:22;3.10;;;0.75;;
27985;SDS011;15453;53.692;10.168;2022-12-07T14:22:15;3.03;;;0.90;;
27985;SDS011;15453;53.692;10.168;2022-12-07T14:25:14;3.92;;;0.77;;
27985;SDS011;15453;53.692;10.168;2022-12-07T14:30:14;5.88;;;1.02;;
27985;SDS011;15453;53.692;10.168;2022-12-07T14:32:41;6.07;;;1.30;;
27985;SDS011;15453;53.692;10.168;2022-12-07T14:35:11;5.68;;;1.10;;
27985;SDS011;15453;53.692;10.168;2022-12-07T14:37:38;5.15;;;0.68;;
27985;SDS011;15453;53.692;10.168;2022-12-07T14:40:05;4.65;;;1.00;;
27985;SDS011;15453;53.692;10.168;2022-12-07T14:42:31;5.85;;;0.98;;
27985;SDS011;15453;53.692;10.168;2022-12-07T14:44:57;4.30;;;0.88;;
27985;SDS011;15453;53.692;10.168;2022-12-07T14:47:23;3.50;;;0.95;;
27985;SDS011;15453;53.692;10.168;2022-12-07T14:49:50;5.88;;;1.35;;
27985;SDS011;15453;53.692;10.168;2022-12-07T14:52:50;4.38;;;1.13;;
27985;SDS011;15453;53.692;10.168;2022-12-07T14:55:30;3.42;;;1.00;;
27985;SDS011;15453;53.692;10.168;2022-12-07T14:57:58;4.22;;;0.85;;
27985;SDS011;15453;53.692;10.168;2022-12-07T15:00:24;5.97;;;1.02;;
27985;SDS011;15453;53.692;10.168;2022-12-07T15:02:50;2.50;;;0.70;;
27985;SDS011;15453;53.692;10.168;2022-12-07T15:05:17;4.47;;;0.80;;
27985;SDS011;15453;53.692;10.168;2022-12-07T15:07:43;8.85;;;1.35;;
27985;SDS011;15453;53.692;10.168;2022-12-07T15:10:13;5.80;;;1.00;;
27985;SDS011;15453;53.692;10.168;2022-12-07T15:12:42;5.88;;;0.98;;
27985;SDS011;15453;53.692;10.168;2022-12-07T15:15:08;4.03;;;0.98;;
27985;SDS011;15453;53.692;10.168;2022-12-07T15:17:33;2.00;;;0.70;;
27985;SDS011;15453;53.692;10.168;2022-12-07T15:19:58;3.97;;;0.90;;
27985;SDS011;15453;53.692;10.168;2022-12-07T15:22:24;3.28;;;0.93;;
27985;SDS011;15453;53.692;10.168;2022-12-07T15:24:49;5.57;;;1.20;;
27985;SDS011;15453;53.692;10.168;2022-12-07T15:27:14;2.90;;;0.77;;
27985;SDS011;15453;53.692;10.168;2022-12-07T15:29:39;5.22;;;1.70;;
27985;SDS011;15453;53.692;10.168;2022-12-07T15:32:05;6.53;;;1.55;;
27985;SDS011;15453;53.692;10.168;2022-12-07T15:34:30;4.30;;;1.00;;
27985;SDS011;15453;53.692;10.168;2022-12-07T15:36:56;4.75;;;1.30;;
27985;SDS011;15453;53.692;10.168;2022-12-07T15:39:22;2.53;;;1.00;;
27985;SDS011;15453;53.692;10.168;2022-12-07T15:41:47;3.15;;;1.30;;
27985;SDS011;15453;53.692;10.168;2022-12-07T15:44:12;2.38;;;1.10;;
27985;SDS011;15453;53.692;10.168;2022-12-07T15:46:56;2.35;;;0.88;;
27985;SDS011;15453;53.692;10.168;2022-12-07T15:49:22;3.75;;;0.98;;
27985;SDS011;15453;53.692;10.168;2022-12-07T15:51:47;5.05;;;1.40;;
27985;SDS011;15453;53.692;10.168;2022-12-07T15:54:22;3.80;;;1.17;;
27985;SDS011;15453;53.692;10.168;2022-12-07T15:56:50;3.03;;;0.82;;
27985;SDS011;15453;53.692;10.168;2022-12-07T15:59:16;2.75;;;0.95;;
27985;SDS011;15453;53.692;10.168;2022-12-07T16:01:41;3.75;;;1.27;;
27985;SDS011;15453;53.692;10.168;2022-12-07T16:04:07;4.47;;;1.20;;
27985;SDS011;15453;53.692;10.168;2022-12-07T16:06:32;5.90;;;1.50;;
27985;SDS011;15453;53.692;10.168;2022-12-07T16:08:57;6.05;;;1.58;;
27985;SDS011;15453;53.692;10.168;2022-12-07T16:11:23;5.82;;;1.70;;
27985;SDS011;15453;53.692;10.168;2022-12-07T16:13:48;2.65;;;1.45;;
27985;SDS011;15453;53.692;10.168;2022-12-07T16:16:15;6.03;;;2.30;;
27985;SDS011;15453;53.692;10.168;2022-12-07T16:18:42;7.00;;;2.20;;
27985;SDS011;15453;53.692;10.168;2022-12-07T16:21:08;10.00;;;2.30;;
27985;SDS011;15453;53.692;10.168;2022-12-07T16:23:33;6.40;;;2.45;;
27985;SDS011;15453;53.692;10.168;2022-12-07T16:26:08;4.85;;;2.13;;
27985;SDS011;15453;53.692;10.168;2022-12-07T16:28:36;9.02;;;1.90;;
27985;SDS011;15453;53.692;10.168;2022-12-07T16:31:06;7.22;;;1.80;;
27985;SDS011;15453;53.692;10.168;2022-12-07T16:33:42;2.90;;;1.67;;
27985;SDS011;15453;53.692;10.168;2022-12-07T16:36:09;5.07;;;1.42;;
27985;SDS011;15453;53.692;10.168;2022-12-07T16:38:36;3.75;;;1.65;;
27985;SDS011;15453;53.692;10.168;2022-12-07T16:41:03;4.97;;;1.58;;
27985;SDS011;15453;53.692;10.168;2022-12-07T16:43:29;4.32;;;1.48;;
27985;SDS011;15453;53.692;10.168;2022-12-07T16:45:54;3.38;;;1.70;;
27985;SDS011;15453;53.692;10.168;2022-12-07T16:48:19;3.88;;;1.80;;
27985;SDS011;15453;53.692;10.168;2022-12-07T16:50:45;3.47;;;1.70;;
27985;SDS011;15453;53.692;10.168;2022-12-07T16:53:12;4.20;;;1.65;;
27985;SDS011;15453;53.692;10.168;2022-12-07T16:55:38;5.38;;;1.80;;
27985;SDS011;15453;53.692;10.168;2022-12-07T16:58:08;6.03;;;1.55;;
27985;SDS011;15453;53.692;10.168;2022-12-07T17:00:34;5.15;;;2.10;;
27985;SDS011;15453;53.692;10.168;2022-12-07T17:03:01;4.82;;;2.20;;
27985;SDS011;15453;53.692;10.168;2022-12-07T17:05:27;3.95;;;1.92;;
27985;SDS011;15453;53.692;10.168;2022-12-07T17:07:53;4.78;;;1.77;;
27985;SDS011;15453;53.692;10.168;2022-12-07T17:10:19;7.93;;;1.75;;
27985;SDS011;15453;53.692;10.168;2022-12-07T17:12:45;5.40;;;2.08;;
27985;SDS011;15453;53.692;10.168;2022-12-07T17:15:10;6.13;;;2.28;;
27985;SDS011;15453;53.692;10.168;2022-12-07T17:17:41;4.80;;;1.98;;
27985;SDS011;15453;53.692;10.168;2022-12-07T17:20:06;7.13;;;1.95;;
27985;SDS011;15453;53.692;10.168;2022-12-07T17:22:32;3.38;;;1.98;;
27985;SDS011;15453;53.692;10.168;2022-12-07T17:24:57;7.97;;;2.30;;
27985;SDS011;15453;53.692;10.168;2022-12-07T17:27:23;5.57;;;2.38;;
27985;SDS011;15453;53.692;10.168;2022-12-07T17:29:48;7.65;;;3.03;;
27985;SDS011;15453;53.692;10.168;2022-12-07T17:32:13;6.65;;;2.45;;
27985;SDS011;15453;53.692;10.168;2022-12-07T17:34:39;4.40;;;2.40;;
27985;SDS011;15453;53.692;10.168;2022-12-07T17:37:04;6.80;;;2.83;;
27985;SDS011;15453;53.692;10.168;2022-12-07T17:39:29;7.90;;;2.55;;
27985;SDS011;15453;53.692;10.168;2022-12-07T17:41:54;5.40;;;2.53;;
27985;SDS011;15453;53.692;10.168;2022-12-07T17:44:38;8.40;;;2.80;;
27985;SDS011;15453;53.692;10.168;2022-12-07T17:47:04;4.72;;;2.13;;
27985;SDS011;15453;53.692;10.168;2022-12-07T17:49:30;8.55;;;2.47;;
27985;SDS011;15453;53.692;10.168;2022-12-07T17:51:55;6.85;;;2.42;;
27985;SDS011;15453;53.692;10.168;2022-12-07T17:54:39;5.22;;;2.58;;
27985;SDS011;15453;53.692;10.168;2022-12-07T17:57:04;8.30;;;2.90;;